Time;durP1;ratioP1;P1;durP2;ratioP2;P2;SDS_P1;SDS_P2;PMS_P1;PMS_P2;Temp;Humidity;BMP_temperature;BMP_pressure;BME280_temperature;BME280_humidity;BME280_pressure;Samples;Min_cycle;Max_cycle;Signal;HPM_P1;HPM_P2
2021/12/16 00:08:04;;;;;;;58.20;24.45;;;9.10;99.90;;;;;;5034289;28;20039;-71
2021/12/16 00:10:37;;;;;;;62.60;25.85;;;9.20;99.90;;;;;;5031971;28;20064;-71
2021/12/16 00:34:57;;;;;;;75.88;26.10;;;9.10;99.90;;;;;;5034626;28;20032;-71
2021/12/16 00:37:24;;;;;;;72.40;26.85;;;9.30;99.90;;;;;;5034083;28;20124;-68
2021/12/16 00:39:50;;;;;;;60.15;24.25;;;9.10;99.90;;;;;;5034292;28;20437;-70
2021/12/16 00:42:33;;;;;;;62.40;24.80;;;9.10;99.90;;;;;;5033887;28;20026;-71
2021/12/16 00:47:55;;;;;;;64.15;25.45;;;9.10;99.90;;;;;;5033358;28;20014;-71
2021/12/16 00:58:07;;;;;;;67.47;24.20;;;9.00;99.90;;;;;;5033625;28;20278;-72
2021/12/16 01:00:34;;;;;;;64.15;25.88;;;9.10;99.90;;;;;;5034012;28;20025;-70
2021/12/16 01:08:52;;;;;;;62.63;22.70;;;9.10;99.90;;;;;;5033742;28;20048;-71
2021/12/16 01:42:24;;;;;;;57.33;22.63;;;9.00;99.90;;;;;;5031936;28;20021;-70
2021/12/16 01:49:54;;;;;;;68.18;25.83;;;8.80;99.90;;;;;;5033087;28;20564;-71
2021/12/16 01:55:23;;;;;;;71.70;26.30;;;8.80;99.90;;;;;;5017924;28;20399;-70
2021/12/16 01:58:00;;;;;;;63.30;24.77;;;8.70;99.90;;;;;;5032878;28;20035;-71
2021/12/16 02:00:42;;;;;;;58.38;24.20;;;8.70;99.90;;;;;;5032077;28;20122;-71
2021/12/16 02:03:08;;;;;;;55.03;23.08;;;8.70;99.90;;;;;;5032699;28;20040;-72
2021/12/16 02:08:39;;;;;;;58.30;21.63;;;8.70;99.90;;;;;;4998821;28;20045;-71
2021/12/16 02:27:24;;;;;;;41.60;19.00;;;8.70;99.90;;;;;;5032365;28;20120;-71
2021/12/16 02:28:06;;;;;;;39.28;15.77;;;8.70;99.90;;;;;;5031658;28;20037;-71
2021/12/16 02:31:14;;;;;;;40.38;16.60;;;8.60;99.90;;;;;;5030645;28;20044;-69
2021/12/16 02:36:28;;;;;;;38.65;15.88;;;8.70;99.90;;;;;;5031716;28;20368;-71
2021/12/16 02:39:00;;;;;;;31.40;14.40;;;8.70;99.90;;;;;;5030378;28;20411;-69
2021/12/16 02:41:26;;;;;;;25.92;13.38;;;8.70;99.90;;;;;;5032316;28;20402;-71
2021/12/16 02:49:03;;;;;;;26.23;13.05;;;8.80;99.90;;;;;;5032039;28;20449;-69
2021/12/16 02:51:29;;;;;;;25.15;13.45;;;8.80;99.90;;;;;;5031751;28;20138;-70
2021/12/16 02:53:58;;;;;;;28.52;15.32;;;8.90;99.90;;;;;;5030976;28;20106;-70
2021/12/16 02:56:24;;;;;;;27.65;13.98;;;8.80;99.90;;;;;;5031323;28;20402;-71
2021/12/16 02:58:53;;;;;;;24.48;13.60;;;8.80;99.90;;;;;;5014069;28;20112;-71
2021/12/16 03:01:41;;;;;;;35.35;13.60;;;8.80;99.90;;;;;;5032021;28;20120;-71
2021/12/16 03:04:12;;;;;;;22.13;13.57;;;8.80;99.90;;;;;;5034046;28;20056;-71
2021/12/16 03:06:40;;;;;;;32.53;13.75;;;8.80;99.90;;;;;;5032944;28;20406;-72
2021/12/16 03:09:10;;;;;;;23.55;12.75;;;8.80;99.90;;;;;;5033108;28;20087;-72
2021/12/16 03:16:53;;;;;;;20.40;12.40;;;8.80;99.90;;;;;;5032297;28;20022;-71
2021/12/16 03:19:35;;;;;;;16.80;12.45;;;8.90;99.90;;;;;;5031706;28;20392;-71
2021/12/16 03:22:03;;;;;;;23.38;13.32;;;8.80;99.90;;;;;;5031881;28;20395;-72
2021/12/16 03:37:53;;;;;;;30.90;12.45;;;8.80;99.90;;;;;;5031414;28;20083;-71
2021/12/16 03:40:20;;;;;;;21.73;11.50;;;8.80;99.90;;;;;;5031404;28;20076;-71
2021/12/16 03:42:59;;;;;;;20.33;12.27;;;8.80;99.90;;;;;;5031274;28;20032;-71
2021/12/16 03:48:35;;;;;;;20.33;10.93;;;8.80;99.90;;;;;;5009967;28;20042;-70
2021/12/16 03:51:04;;;;;;;17.23;10.55;;;8.90;99.90;;;;;;5030940;28;20030;-70
2021/12/16 03:53:30;;;;;;;15.85;10.43;;;8.80;99.90;;;;;;5030723;28;20018;-71
2021/12/16 03:55:55;;;;;;;18.23;11.02;;;8.80;99.90;;;;;;5030947;28;20097;-69
2021/12/16 03:58:21;;;;;;;16.88;10.60;;;8.90;99.90;;;;;;5044331;28;20049;-70
2021/12/16 04:00:53;;;;;;;19.60;10.90;;;8.90;99.90;;;;;;5030177;28;20030;-71
2021/12/16 04:03:19;;;;;;;26.63;12.00;;;8.90;99.90;;;;;;5032475;28;20479;-72
2021/12/16 04:05:46;;;;;;;24.38;10.98;;;8.80;99.90;;;;;;5024481;28;20034;-70
2021/12/16 04:08:12;;;;;;;24.70;10.10;;;8.80;99.90;;;;;;4997739;28;20068;-70
2021/12/16 04:10:46;;;;;;;33.58;12.85;;;8.90;99.90;;;;;;5015207;28;20034;-70
2021/12/16 04:13:15;;;;;;;16.95;11.50;;;8.80;99.90;;;;;;5014699;28;20024;-71
2021/12/16 04:15:42;;;;;;;23.15;13.38;;;8.80;99.90;;;;;;5034762;28;20031;-71
2021/12/16 04:18:07;;;;;;;19.00;11.48;;;8.80;99.90;;;;;;5032432;28;20399;-71
2021/12/16 04:20:33;;;;;;;24.90;11.15;;;8.80;99.90;;;;;;5034349;28;20025;-72
2021/12/16 04:23:00;;;;;;;14.07;10.55;;;8.90;99.90;;;;;;5034465;28;20494;-71
2021/12/16 04:25:34;;;;;;;24.48;12.02;;;8.80;99.90;;;;;;5034584;28;20490;-71
2021/12/16 04:28:04;;;;;;;20.00;11.25;;;8.80;99.90;;;;;;5033784;28;20040;-71
2021/12/16 04:30:31;;;;;;;27.65;11.38;;;8.80;99.90;;;;;;5034059;28;20541;-72
2021/12/16 04:32:58;;;;;;;23.23;11.60;;;8.80;99.90;;;;;;5034200;28;20075;-71
2021/12/16 04:35:24;;;;;;;16.77;10.98;;;8.80;99.90;;;;;;5034086;28;20022;-71
2021/12/16 04:37:50;;;;;;;25.65;11.57;;;8.80;99.90;;;;;;5016660;28;20072;-71
2021/12/16 04:40:18;;;;;;;25.08;11.80;;;8.90;99.90;;;;;;5034156;28;20589;-71
2021/12/16 04:42:46;;;;;;;24.25;12.82;;;8.90;99.90;;;;;;5034057;28;20021;-70
2021/12/16 04:45:17;;;;;;;20.58;12.48;;;8.90;99.90;;;;;;5016407;28;20017;-72
2021/12/16 04:47:43;;;;;;;18.92;11.00;;;8.80;99.90;;;;;;5016620;28;20026;-71
2021/12/16 04:50:10;;;;;;;18.25;11.98;;;8.80;99.90;;;;;;5032974;28;20024;-70
2021/12/16 04:52:36;;;;;;;19.20;11.82;;;8.80;99.90;;;;;;5033741;28;20479;-70
2021/12/16 04:55:06;;;;;;;26.77;12.18;;;8.70;99.90;;;;;;5016210;28;20033;-70
2021/12/16 04:57:32;;;;;;;22.63;12.48;;;8.70;99.90;;;;;;5034028;28;20116;-70
2021/12/16 04:59:58;;;;;;;21.00;11.68;;;8.70;99.90;;;;;;5034041;28;20449;-70
2021/12/16 05:02:25;;;;;;;17.02;10.98;;;8.70;99.90;;;;;;5033521;28;20029;-70
2021/12/16 05:04:51;;;;;;;22.25;12.32;;;8.70;99.90;;;;;;5033795;28;20056;-71
2021/12/16 05:07:18;;;;;;;26.95;12.60;;;8.70;99.90;;;;;;5033241;28;20471;-70
2021/12/16 05:12:33;;;;;;;24.92;12.23;;;8.70;99.90;;;;;;5032683;28;20118;-71
2021/12/16 05:14:59;;;;;;;20.25;12.13;;;8.70;99.90;;;;;;5032972;28;20021;-70
2021/12/16 05:17:32;;;;;;;31.67;14.15;;;8.70;99.90;;;;;;5014661;28;20498;-71
2021/12/16 05:20:03;;;;;;;29.50;12.75;;;8.70;99.90;;;;;;5033409;28;20018;-71
2021/12/16 05:25:24;;;;;;;21.15;11.65;;;8.70;99.90;;;;;;5033001;28;20086;-71
2021/12/16 05:27:49;;;;;;;18.23;12.15;;;8.70;99.90;;;;;;5032860;28;20021;-71
2021/12/16 05:30:15;;;;;;;22.92;13.27;;;8.70;99.90;;;;;;5033047;28;20024;-70
2021/12/16 05:32:45;;;;;;;26.05;13.40;;;8.60;99.90;;;;;;5015079;28;20018;-71
2021/12/16 05:35:13;;;;;;;25.50;13.65;;;8.60;99.90;;;;;;5032624;28;20076;-70
2021/12/16 05:37:39;;;;;;;26.27;13.82;;;8.50;99.90;;;;;;5033310;28;20550;-70
2021/12/16 05:40:05;;;;;;;33.22;14.52;;;8.50;99.90;;;;;;5032402;28;20022;-70
2021/12/16 05:42:30;;;;;;;30.50;14.88;;;8.40;99.90;;;;;;5032683;28;20021;-71
2021/12/16 05:44:56;;;;;;;32.00;16.05;;;8.40;99.90;;;;;;5032847;28;20026;-69
2021/12/16 05:47:21;;;;;;;35.60;15.70;;;8.30;99.90;;;;;;5032127;28;20029;-71
2021/12/16 05:49:47;;;;;;;34.25;16.02;;;8.10;99.90;;;;;;5032515;28;20129;-70
2021/12/16 05:52:12;;;;;;;37.03;15.27;;;8.10;99.90;;;;;;5032279;28;20438;-71
2021/12/16 05:54:38;;;;;;;37.45;16.15;;;8.10;99.90;;;;;;5001457;28;20037;-70
2021/12/16 05:57:04;;;;;;;37.75;17.30;;;8.00;99.90;;;;;;4324408;28;10000827;-71
2021/12/16 05:59:30;;;;;;;37.72;15.55;;;8.00;99.90;;;;;;5029441;28;20456;-69
2021/12/16 06:01:55;;;;;;;40.00;17.38;;;8.00;99.90;;;;;;5029543;28;20109;-70
2021/12/16 06:04:21;;;;;;;39.22;17.60;;;8.00;99.90;;;;;;5029415;28;20037;-70
2021/12/16 06:06:47;;;;;;;51.33;17.73;;;8.00;99.90;;;;;;5028787;28;20033;-71
2021/12/16 06:09:12;;;;;;;37.22;17.30;;;8.00;99.90;;;;;;5028820;28;20033;-70
2021/12/16 06:11:41;;;;;;;42.60;17.13;;;7.90;99.90;;;;;;5029132;28;20132;-72
2021/12/16 06:14:18;;;;;;;38.00;16.63;;;8.00;99.90;;;;;;5028519;28;20068;-72
2021/12/16 06:27:48;;;;;;;;;;;7.90;99.90;;;;;;5029729;28;20044;-69
2021/12/16 06:30:19;;;;;;;46.05;16.95;;;7.90;99.90;;;;;;5028482;28;19975;-72
2021/12/16 06:32:45;;;;;;;35.58;17.95;;;7.90;99.90;;;;;;5011070;28;20029;-71
2021/12/16 06:35:12;;;;;;;46.30;18.67;;;8.00;99.90;;;;;;5028652;28;20055;-71
2021/12/16 06:37:38;;;;;;;36.33;16.77;;;8.00;99.90;;;;;;5028626;28;20037;-71
2021/12/16 06:40:06;;;;;;;55.28;19.00;;;8.00;99.90;;;;;;5028190;28;20601;-70
2021/12/16 06:42:34;;;;;;;47.90;18.90;;;8.00;99.90;;;;;;5028337;28;20439;-69
2021/12/16 06:45:07;;;;;;;47.80;18.05;;;8.00;99.90;;;;;;5027719;28;20283;-71
2021/12/16 06:47:54;;;;;;;39.98;18.34;;;8.00;99.90;;;;;;4983027;28;10000824;-71
2021/12/16 06:51:09;;;;;;;38.97;15.65;;;8.10;99.90;;;;;;5008713;28;20245;-71
2021/12/16 06:53:17;;;;;;;40.78;16.58;;;8.10;99.90;;;;;;5001284;28;20037;-73
2021/12/16 06:55:50;;;;;;;35.47;15.18;;;8.40;99.90;;;;;;5028826;28;20112;-71
2021/12/16 06:58:31;;;;;;;35.88;16.88;;;8.20;99.90;;;;;;5029377;28;20025;-71
2021/12/16 07:01:09;;;;;;;34.63;16.75;;;8.20;99.90;;;;;;5013239;28;20025;-70
2021/12/16 07:03:50;;;;;;;33.55;15.70;;;8.20;99.90;;;;;;5029465;28;20376;-70
2021/12/16 07:06:22;;;;;;;37.20;15.23;;;8.20;99.90;;;;;;5025918;28;20053;-72
2021/12/16 07:08:52;;;;;;;30.83;16.15;;;8.20;99.90;;;;;;5026363;28;20041;-70
2021/12/16 07:11:17;;;;;;;34.28;16.90;;;8.20;99.90;;;;;;5026073;28;20386;-72
2021/12/16 07:13:55;;;;;;;36.75;16.10;;;8.20;99.90;;;;;;5014743;28;20109;-73
2021/12/16 07:16:20;;;;;;;34.05;15.82;;;8.20;99.90;;;;;;5022455;28;20021;-71
2021/12/16 07:18:46;;;;;;;40.83;16.40;;;8.20;99.90;;;;;;5026914;28;20026;-69
2021/12/16 07:21:12;;;;;;;38.75;14.90;;;8.20;99.90;;;;;;5023877;28;20040;-72
2021/12/16 07:23:37;;;;;;;34.67;16.08;;;8.30;99.90;;;;;;5026930;28;20408;-71
2021/12/16 07:26:03;;;;;;;37.40;15.10;;;8.30;99.90;;;;;;5026378;28;20804;-68
2021/12/16 07:28:29;;;;;;;34.67;15.45;;;8.30;99.90;;;;;;5007953;28;20231;-72
2021/12/16 07:30:55;;;;;;;36.83;15.43;;;8.30;99.90;;;;;;5026472;28;20104;-72
2021/12/16 07:33:21;;;;;;;47.00;16.92;;;8.30;99.90;;;;;;5026029;28;20054;-68
2021/12/16 07:35:47;;;;;;;44.80;16.02;;;8.40;99.90;;;;;;5026329;28;20068;-73
2021/12/16 07:38:14;;;;;;;36.63;15.75;;;8.40;99.90;;;;;;5026138;28;20020;-69
2021/12/16 07:40:42;;;;;;;32.15;14.63;;;8.40;99.90;;;;;;5029827;28;20486;-73
2021/12/16 07:45:42;;;;;;;39.45;15.52;;;8.40;99.90;;;;;;5029555;28;20018;-71
2021/12/16 07:48:10;;;;;;;35.72;16.52;;;8.40;99.90;;;;;;5029117;28;20025;-71
2021/12/16 07:50:36;;;;;;;31.08;14.13;;;8.40;99.90;;;;;;5029780;28;20399;-72
2021/12/16 07:53:03;;;;;;;28.38;15.45;;;9.10;99.90;;;;;;5028949;28;20054;-70
2021/12/16 07:55:28;;;;;;;30.75;14.35;;;8.50;99.90;;;;;;5028704;28;20016;-71
2021/12/16 07:57:54;;;;;;;30.63;15.35;;;8.50;99.90;;;;;;5030328;28;20025;-69
2021/12/16 08:00:24;;;;;;;37.40;15.43;;;8.50;99.90;;;;;;5011580;28;20013;-71
2021/12/16 08:02:50;;;;;;;32.00;12.63;;;8.40;99.90;;;;;;5012704;28;20022;-70
2021/12/16 08:05:17;;;;;;;35.30;15.45;;;8.50;99.90;;;;;;5030043;28;20039;-71
2021/12/16 08:07:43;;;;;;;31.67;14.85;;;8.50;99.90;;;;;;5029856;28;20037;-71
2021/12/16 08:10:13;;;;;;;28.95;14.30;;;8.50;99.90;;;;;;5028818;28;20503;-71
2021/12/16 08:12:38;;;;;;;35.88;14.35;;;8.50;99.90;;;;;;5029144;28;20031;-70
2021/12/16 08:15:06;;;;;;;27.23;14.88;;;8.60;99.90;;;;;;5010806;28;20099;-74
2021/12/16 08:17:32;;;;;;;34.35;15.15;;;8.60;99.90;;;;;;5029063;28;20029;-72
2021/12/16 08:19:57;;;;;;;36.03;15.20;;;8.60;99.90;;;;;;5029366;28;20030;-71
2021/12/16 08:22:23;;;;;;;24.92;15.30;;;8.70;99.90;;;;;;5027765;28;20075;-71
2021/12/16 08:24:49;;;;;;;48.85;15.15;;;8.70;99.90;;;;;;5027400;28;20029;-72
2021/12/16 08:27:15;;;;;;;29.77;14.57;;;8.70;99.90;;;;;;5009947;28;20343;-71
2021/12/16 08:29:42;;;;;;;27.00;14.52;;;8.70;99.90;;;;;;5010732;28;20091;-71
2021/12/16 08:32:08;;;;;;;34.10;15.18;;;8.70;99.90;;;;;;5029077;28;20079;-71
2021/12/16 08:34:37;;;;;;;32.25;14.70;;;8.70;99.90;;;;;;5027322;28;20109;-71
2021/12/16 08:37:04;;;;;;;31.23;14.88;;;8.80;99.90;;;;;;5032687;28;20399;-69
2021/12/16 08:39:29;;;;;;;27.40;13.50;;;8.80;99.90;;;;;;5018471;28;20017;-72
2021/12/16 08:41:57;;;;;;;26.50;14.07;;;8.80;99.90;;;;;;5028463;28;20557;-72
2021/12/16 08:44:24;;;;;;;26.15;13.30;;;8.80;99.90;;;;;;5010110;28;20040;-72
2021/12/16 08:46:53;;;;;;;26.35;14.10;;;8.80;99.90;;;;;;5013176;28;20020;-72
2021/12/16 08:49:20;;;;;;;23.55;12.98;;;8.80;99.90;;;;;;5010775;28;20095;-71
2021/12/16 08:51:50;;;;;;;30.85;12.07;;;8.80;99.90;;;;;;5025636;28;20036;-72
2021/12/16 08:54:17;;;;;;;22.08;11.68;;;8.80;99.90;;;;;;5017542;28;20037;-73
2021/12/16 08:56:43;;;;;;;20.15;12.05;;;8.80;99.90;;;;;;5028421;28;20095;-70
2021/12/16 08:59:09;;;;;;;24.17;11.77;;;8.90;99.90;;;;;;5031764;28;20108;-71
2021/12/16 09:01:43;;;;;;;36.70;12.27;;;8.80;99.90;;;;;;5048275;28;20094;-72
2021/12/16 09:04:09;;;;;;;17.65;11.23;;;8.80;99.90;;;;;;5021666;28;20044;-72
2021/12/16 09:06:35;;;;;;;23.25;11.55;;;8.80;99.90;;;;;;5011045;28;20036;-70
2021/12/16 09:09:03;;;;;;;29.20;10.60;;;8.90;99.90;;;;;;5026358;28;20120;-71
2021/12/16 09:11:32;;;;;;;20.27;10.63;;;8.90;99.90;;;;;;5029006;28;20022;-72
2021/12/16 09:13:59;;;;;;;17.77;10.75;;;9.00;99.90;;;;;;5026065;28;20026;-71
2021/12/16 09:16:28;;;;;;;18.95;11.35;;;9.00;99.90;;;;;;5030234;28;20022;-72
2021/12/16 09:18:55;;;;;;;28.35;11.93;;;8.90;99.90;;;;;;5028069;28;20082;-73
2021/12/16 09:21:25;;;;;;;14.90;11.00;;;9.00;99.90;;;;;;5028770;28;20033;-73
2021/12/16 09:23:52;;;;;;;18.02;10.27;;;9.10;99.90;;;;;;5023009;28;20033;-70
2021/12/16 09:26:19;;;;;;;18.95;11.35;;;9.00;99.90;;;;;;5032569;28;20016;-70
2021/12/16 09:28:44;;;;;;;20.88;10.68;;;9.00;99.90;;;;;;5045449;28;20039;-72
2021/12/16 09:31:12;;;;;;;23.40;11.02;;;9.00;99.90;;;;;;5028456;28;20033;-73
2021/12/16 09:33:45;;;;;;;19.17;11.48;;;9.00;99.90;;;;;;4997547;28;20029;-71
2021/12/16 09:36:13;;;;;;;21.35;10.60;;;9.00;99.90;;;;;;5021212;28;20108;-75
2021/12/16 09:38:40;;;;;;;18.00;10.68;;;9.10;99.90;;;;;;5022223;28;20080;-70
2021/12/16 09:41:06;;;;;;;16.90;11.35;;;9.10;99.90;;;;;;5023462;28;20026;-73
2021/12/16 09:43:36;;;;;;;20.80;10.98;;;9.20;99.90;;;;;;5037608;28;20020;-73
2021/12/16 09:46:05;;;;;;;15.45;9.75;;;9.20;99.90;;;;;;5028660;28;20021;-73
2021/12/16 09:48:32;;;;;;;12.85;10.27;;;9.20;99.90;;;;;;5023308;28;20226;-73
2021/12/16 09:51:00;;;;;;;16.23;9.57;;;9.20;99.90;;;;;;5017882;28;20022;-74
2021/12/16 09:53:26;;;;;;;20.25;10.10;;;9.20;99.90;;;;;;5024781;28;20028;-74
2021/12/16 09:55:57;;;;;;;28.10;11.52;;;9.10;99.90;;;;;;5025849;28;20025;-74
2021/12/16 09:58:24;;;;;;;23.92;10.80;;;9.10;99.90;;;;;;5025363;28;20510;-73
2021/12/16 10:00:50;;;;;;;16.08;10.85;;;9.10;99.90;;;;;;5023064;28;20028;-73
2021/12/16 10:03:15;;;;;;;18.58;10.07;;;9.10;99.90;;;;;;5022008;28;20021;-72
2021/12/16 10:05:41;;;;;;;12.55;9.95;;;9.60;99.90;;;;;;5016716;28;20041;-73
2021/12/16 10:08:09;;;;;;;21.42;10.35;;;9.20;99.90;;;;;;5022032;28;20474;-72
2021/12/16 10:10:35;;;;;;;15.57;10.23;;;9.20;99.90;;;;;;5022208;28;20167;-73
2021/12/16 10:13:03;;;;;;;14.45;9.45;;;9.30;99.90;;;;;;5022734;28;20298;-73
2021/12/16 10:18:12;;;;;;;20.90;9.50;;;9.30;99.90;;;;;;5017130;28;20029;-72
2021/12/16 10:20:43;;;;;;;18.48;9.93;;;9.30;99.90;;;;;;5020608;28;20120;-73
2021/12/16 10:23:17;;;;;;;12.23;7.68;;;9.30;99.90;;;;;;5019368;28;20041;-73
2021/12/16 10:25:49;;;;;;;17.13;9.07;;;9.30;99.90;;;;;;5024188;28;20302;-74
2021/12/16 10:28:24;;;;;;;14.95;9.70;;;9.30;99.90;;;;;;5022573;28;20032;-73
2021/12/16 10:30:57;;;;;;;13.43;8.50;;;9.40;99.90;;;;;;5005256;28;20025;-75
2021/12/16 10:33:38;;;;;;;8.98;8.18;;;10.50;99.90;;;;;;5023250;28;20475;-71
2021/12/16 10:36:10;;;;;;;15.05;8.90;;;10.50;99.90;;;;;;5018508;28;20104;-73
2021/12/16 10:38:39;;;;;;;14.93;8.93;;;9.50;99.90;;;;;;5012929;28;20021;-72
2021/12/16 10:41:07;;;;;;;12.82;8.13;;;9.50;99.90;;;;;;5029992;28;20026;-70
2021/12/16 10:43:40;;;;;;;11.05;7.75;;;9.60;99.90;;;;;;5021263;28;20029;-70
2021/12/16 10:46:18;;;;;;;9.93;8.00;;;9.60;99.90;;;;;;5015603;28;20439;-75
2021/12/16 10:48:46;;;;;;;9.05;7.10;;;9.60;99.90;;;;;;5017028;28;20236;-72
2021/12/16 10:51:19;;;;;;;10.55;7.70;;;9.60;99.90;;;;;;5007621;28;20026;-71
2021/12/16 10:53:48;;;;;;;12.65;7.18;;;9.50;99.90;;;;;;5025462;28;20037;-71
2021/12/16 10:56:15;;;;;;;15.85;7.15;;;9.50;99.90;;;;;;5010754;28;20491;-68
2021/12/16 10:58:59;;;;;;;15.57;5.93;;;9.60;99.90;;;;;;5013333;28;20095;-70
2021/12/16 11:01:52;;;;;;;8.07;5.95;;;9.70;99.90;;;;;;5012957;28;20034;-72
2021/12/16 11:04:27;;;;;;;13.05;6.57;;;9.80;99.90;;;;;;5020677;28;20017;-71
2021/12/16 11:06:58;;;;;;;14.07;6.63;;;9.80;99.90;;;;;;5005008;28;20025;-72
2021/12/16 11:09:37;;;;;;;12.65;5.28;;;9.80;99.90;;;;;;5020363;28;20110;-71
2021/12/16 11:12:19;;;;;;;11.32;5.60;;;9.90;99.90;;;;;;5022688;28;20021;-73
2021/12/16 11:14:52;;;;;;;7.10;5.75;;;9.90;99.90;;;;;;5005453;28;20018;-72
2021/12/16 11:17:21;;;;;;;5.45;3.63;;;10.00;99.90;;;;;;5012087;28;20756;-73
2021/12/16 11:19:49;;;;;;;6.95;3.80;;;10.10;99.90;;;;;;5010369;28;20045;-70
2021/12/16 11:22:23;;;;;;;7.25;3.90;;;10.00;99.90;;;;;;5017895;28;20029;-71
2021/12/16 11:24:50;;;;;;;4.28;3.58;;;10.10;99.90;;;;;;5013128;28;20036;-73
2021/12/16 11:27:28;;;;;;;4.80;4.30;;;10.10;99.90;;;;;;5022631;28;20025;-72
2021/12/16 11:29:56;;;;;;;5.57;4.18;;;10.10;99.90;;;;;;5017463;28;20025;-75
2021/12/16 11:32:38;;;;;;;6.28;3.97;;;12.00;99.90;;;;;;5020988;28;20656;-72
2021/12/16 11:35:23;;;;;;;9.88;4.68;;;10.30;99.90;;;;;;5015622;28;20022;-73
2021/12/16 11:37:50;;;;;;;8.55;4.32;;;10.50;99.90;;;;;;5020912;28;20021;-74
2021/12/16 11:40:17;;;;;;;5.40;3.10;;;10.80;99.90;;;;;;5022844;28;20294;-72
2021/12/16 11:42:43;;;;;;;4.88;4.28;;;11.00;99.90;;;;;;5016776;28;20041;-72
2021/12/16 11:45:09;;;;;;;7.38;3.88;;;11.30;99.90;;;;;;5010342;28;20037;-75
2021/12/16 11:47:45;;;;;;;4.60;3.22;;;11.40;99.90;;;;;;5020622;28;20025;-73
2021/12/16 11:50:13;;;;;;;5.20;3.70;;;11.70;99.90;;;;;;5025943;28;20360;-74
2021/12/16 11:52:40;;;;;;;9.55;3.40;;;12.20;99.90;;;;;;5011205;28;20515;-74
2021/12/16 11:55:12;;;;;;;8.75;3.50;;;13.40;99.90;;;;;;5003530;28;20025;-74
2021/12/16 11:57:48;;;;;;;5.30;3.35;;;13.20;99.90;;;;;;5023638;28;20037;-77
2021/12/16 12:00:23;;;;;;;5.25;3.08;;;12.50;99.90;;;;;;5022999;28;20434;-73
2021/12/16 12:02:51;;;;;;;18.88;5.47;;;11.80;99.90;;;;;;5032743;28;20057;-60
2021/12/16 12:05:36;;;;;;;5.57;3.00;;;11.50;99.90;;;;;;5020918;28;20024;-59
2021/12/16 12:08:13;;;;;;;4.32;3.22;;;11.70;99.90;;;;;;5021716;28;20037;-62
2021/12/16 12:11:00;;;;;;;4.15;3.03;;;11.30;99.90;;;;;;5004707;28;20021;-64
2021/12/16 12:13:28;;;;;;;4.88;3.55;;;10.70;99.90;;;;;;5005103;28;20209;-77
2021/12/16 12:16:07;;;;;;;8.43;4.25;;;10.60;99.90;;;;;;5023744;28;20292;-74
2021/12/16 12:18:52;;;;;;;5.10;3.45;;;10.60;99.90;;;;;;5022669;28;20116;-73
2021/12/16 12:21:23;;;;;;;6.78;3.58;;;10.70;99.90;;;;;;5022114;28;20026;-72
2021/12/16 12:24:03;;;;;;;4.40;2.90;;;10.60;99.90;;;;;;5022154;28;20040;-75
2021/12/16 12:26:33;;;;;;;5.95;3.00;;;10.60;99.90;;;;;;5026124;28;20026;-78
2021/12/16 12:29:21;;;;;;;3.47;2.03;;;10.70;99.90;;;;;;5034118;28;20060;-80
2021/12/16 12:31:52;;;;;;;13.68;1.90;;;10.50;99.90;;;;;;5007882;28;20297;-74
2021/12/16 12:34:20;;;;;;;4.45;2.40;;;10.70;99.90;;;;;;5024662;28;20116;-76
2021/12/16 12:36:48;;;;;;;6.97;2.53;;;10.30;99.90;;;;;;5022123;28;20018;-72
2021/12/16 12:39:18;;;;;;;4.30;2.03;;;10.30;99.90;;;;;;5023938;28;20128;-73
2021/12/16 12:41:46;;;;;;;8.75;2.70;;;10.20;99.90;;;;;;5020117;28;20037;-74
2021/12/16 12:44:12;;;;;;;9.45;2.63;;;10.40;99.90;;;;;;5024060;28;20037;-75
2021/12/16 12:46:42;;;;;;;4.32;2.03;;;10.90;99.90;;;;;;5009506;28;20469;-73
2021/12/16 12:49:12;;;;;;;6.10;2.03;;;11.60;99.90;;;;;;5012270;28;20045;-75
2021/12/16 12:51:50;;;;;;;5.35;1.63;;;14.30;99.90;;;;;;5011760;28;20037;-72
2021/12/16 12:54:23;;;;;;;3.53;1.85;;;13.90;99.90;;;;;;5020535;28;20021;-75
2021/12/16 12:56:50;;;;;;;8.10;1.60;;;14.80;99.90;;;;;;5022933;28;20025;-76
2021/12/16 12:59:17;;;;;;;7.95;2.60;;;15.40;99.90;;;;;;5068865;22;20351;-75
2021/12/16 13:01:44;;;;;;;2.67;1.80;;;14.90;99.90;;;;;;4999402;28;20452;-75
2021/12/16 13:04:21;;;;;;;7.40;2.03;;;14.10;99.90;;;;;;5025887;28;20021;-75
2021/12/16 13:07:06;;;;;;;8.18;2.08;;;12.90;99.90;;;;;;5031945;28;20113;-76
2021/12/16 13:09:48;;;;;;;5.90;2.67;;;11.80;99.90;;;;;;5030182;28;20033;-76
2021/12/16 13:12:44;;;;;;;5.78;2.85;;;11.20;99.90;;;;;;5027453;28;20435;-75
2021/12/16 13:15:28;;;;;;;5.85;3.40;;;10.70;99.90;;;;;;5015513;28;20479;-75
2021/12/16 13:24:16;;;;;;;8.07;3.17;;;11.60;99.90;;;;;;5035120;28;20072;-76
2021/12/16 13:27:06;;;;;;;7.82;2.35;;;12.20;99.90;;;;;;5026653;28;20029;-76
2021/12/16 13:29:38;;;;;;;4.57;1.83;;;13.00;99.90;;;;;;5012079;28;20121;-74
2021/12/16 13:32:12;;;;;;;9.75;2.03;;;13.60;99.90;;;;;;5029722;28;20045;-74
2021/12/16 13:34:48;;;;;;;5.18;1.98;;;14.40;99.90;;;;;;5029301;28;20106;-72
2021/12/16 13:37:36;;;;;;;5.95;2.30;;;15.30;99.90;;;;;;5028832;28;20128;-74
2021/12/16 13:40:31;;;;;;;6.05;2.15;;;16.10;99.90;;;;;;5029555;28;20414;-75
2021/12/16 13:43:21;;;;;;;4.68;2.17;;;16.70;99.90;;;;;;5026331;28;20258;-76
2021/12/16 13:46:09;;;;;;;6.03;1.98;;;16.80;99.90;;;;;;5014888;28;20547;-74
2021/12/16 13:49:12;;;;;;;4.00;1.80;;;16.30;99.90;;;;;;5025705;28;20514;-75
2021/12/16 14:03:27;;;;;;;8.90;1.70;;;13.30;99.90;;;;;;5024578;28;20096;-77
2021/12/16 14:06:10;;;;;;;18.90;1.90;;;14.10;99.90;;;;;;5025837;28;20502;-77
2021/12/16 14:08:52;;;;;;;6.90;1.92;;;15.10;99.90;;;;;;5037618;28;20025;-77
2021/12/16 14:14:46;;;;;;;10.32;3.95;;;13.50;99.90;;;;;;5022708;28;20125;-78
2021/12/16 14:23:33;;;;;;;16.08;2.10;;;10.90;99.90;;;;;;5024217;28;20120;-77
2021/12/16 14:26:18;;;;;;;6.32;1.40;;;10.50;99.90;;;;;;5024848;28;20026;-76
2021/12/16 14:32:02;;;;;;;14.80;2.65;;;9.90;99.90;;;;;;5025008;28;20509;-78
2021/12/16 14:37:21;;;;;;;6.05;1.85;;;9.50;99.90;;;;;;5018673;28;20088;-78
2021/12/16 14:42:32;;;;;;;7.93;2.85;;;9.20;99.90;;;;;;5026302;28;20522;-77
2021/12/16 14:45:25;;;;;;;6.57;2.70;;;9.70;99.90;;;;;;5005860;28;20318;-75
2021/12/16 14:50:28;;;;;;;7.35;2.50;;;8.90;99.90;;;;;;5022923;28;20037;-75
2021/12/16 14:52:55;;;;;;;4.32;2.20;;;8.80;99.90;;;;;;5022017;28;20453;-77
2021/12/16 14:55:23;;;;;;;8.48;2.30;;;8.70;99.90;;;;;;5025008;28;20040;-76
2021/12/16 14:57:52;;;;;;;11.75;3.03;;;8.60;99.90;;;;;;5005990;28;20033;-74
2021/12/16 15:00:38;;;;;;;6.47;1.95;;;8.60;99.90;;;;;;5023172;28;20067;-78
2021/12/16 15:03:15;;;;;;;9.20;2.50;;;8.50;99.90;;;;;;5011305;28;20030;-76
2021/12/16 15:06:03;;;;;;;8.77;2.50;;;8.40;99.90;;;;;;5023439;28;20044;-73
2021/12/16 15:08:39;;;;;;;5.55;2.55;;;8.30;99.90;;;;;;5026129;28;20032;-74
2021/12/16 15:11:08;;;;;;;16.90;2.90;;;8.30;99.90;;;;;;5026717;28;20025;-75
2021/12/16 15:44:09;;;;;;;9.70;5.30;;;7.60;99.90;;;;;;5031349;28;20132;-74
2021/12/16 15:46:35;;;;;;;10.70;4.80;;;7.60;99.90;;;;;;5030965;28;20064;-74
2021/12/16 15:49:01;;;;;;;11.05;3.33;;;7.60;99.90;;;;;;5030803;28;20100;-76
2021/12/16 15:51:27;;;;;;;11.20;3.83;;;7.60;99.90;;;;;;5030788;28;20013;-76
2021/12/16 15:53:58;;;;;;;10.88;3.20;;;7.60;99.90;;;;;;5031165;28;20507;-73
2021/12/16 15:56:31;;;;;;;15.35;3.60;;;7.60;99.90;;;;;;5030898;28;20025;-76
2021/12/16 15:59:04;;;;;;;11.13;2.70;;;7.60;99.90;;;;;;4680179;28;9999698;-73
2021/12/16 16:01:37;;;;;;;11.65;2.85;;;7.60;99.90;;;;;;5016940;28;20476;-76
2021/12/16 16:04:11;;;;;;;10.68;2.30;;;8.10;99.90;;;;;;5028867;28;20450;-77
2021/12/16 16:06:44;;;;;;;19.65;3.72;;;7.60;99.90;;;;;;5028812;28;20024;-73
2021/12/16 16:09:11;;;;;;;8.60;2.15;;;7.50;99.90;;;;;;5026677;28;20036;-73
2021/12/16 16:11:40;;;;;;;16.08;2.53;;;7.50;99.90;;;;;;5026182;28;20022;-74
2021/12/16 16:14:07;;;;;;;13.02;2.55;;;7.50;99.90;;;;;;5027431;28;20053;-76
2021/12/16 16:16:41;;;;;;;23.33;4.95;;;7.50;99.90;;;;;;5035115;28;20132;-75
2021/12/16 16:19:09;;;;;;;14.48;2.67;;;7.00;99.90;;;;;;5025959;28;20045;-75
2021/12/16 16:21:42;;;;;;;11.77;2.20;;;7.50;99.90;;;;;;5025664;28;20323;-75
2021/12/16 16:24:23;;;;;;;14.93;3.03;;;8.00;99.90;;;;;;5018025;28;20108;-77
2021/12/16 16:26:53;;;;;;;15.05;3.30;;;10.30;99.90;;;;;;5026623;28;20044;-76
2021/12/16 16:29:22;;;;;;;19.35;3.63;;;7.50;99.90;;;;;;5013644;28;20017;-79
2021/12/16 16:31:49;;;;;;;15.40;2.90;;;7.40;99.90;;;;;;5027792;28;20021;-73
2021/12/16 16:34:22;;;;;;;25.42;3.40;;;7.40;99.90;;;;;;5018545;28;20435;-74
2021/12/16 16:36:51;;;;;;;13.43;3.30;;;7.40;99.90;;;;;;5021614;28;20152;-73
2021/12/16 16:39:21;;;;;;;16.10;4.05;;;7.30;99.90;;;;;;5022577;28;20104;-76
2021/12/16 16:42:09;;;;;;;13.50;3.45;;;7.30;99.90;;;;;;5023249;28;20021;-76